< < Back
Terminal Aerodrome Forecast


Current Version              Previous Versions:   1  2  3  4  5  6  7  8  9  

Terminal Aerodrome Forecast

120
FTUS42 KGSP 261434 AAD
TAFGSP
TAF AMD
KGSP 261434Z 2615/2712 33004KT P6SM FEW006 SCT020 OVC120
      TEMPO 2615/2616 BKN006
     FM261600 30007KT P6SM FEW050 SCT150
     FM262000 24005KT P6SM SCT060
     FM270900 24007KT P6SM SCT200=

Latest METAR

569
SAUS70 KWBC 261500 RRK
MTRGSP
METAR KGSP 261453Z 35005KT 10SM BKN110 08/06 A3000 RMK AO2 RAE03 SLP157
P0000 60014 T00830056 55000


USA.gov is the U.S. government's official web portal to all federal, state and local government web resources and services.